Time;durP1;ratioP1;P1;durP2;ratioP2;P2;SDS_P1;SDS_P2;PMS_P1;PMS_P2;Temp;Humidity;BMP_temperature;BMP_pressure;BME280_temperature;BME280_humidity;BME280_pressure;Samples;Min_cycle;Max_cycle;Signal;HPM_P1;HPM_P2
2022/03/01 00:01:09;;;;;;;10.53;7.57;;;6.70;68.20;;;;;;5034616;28;20194;-69
2022/03/01 00:03:35;;;;;;;8.90;7.30;;;6.60;68.30;;;;;;5033881;28;20171;-69
2022/03/01 00:06:00;;;;;;;9.40;7.27;;;6.60;68.50;;;;;;5034454;28;20918;-68
2022/03/01 00:08:26;;;;;;;7.97;6.60;;;6.50;68.70;;;;;;5034624;28;20433;-68
2022/03/01 00:10:54;;;;;;;9.50;7.97;;;6.60;68.80;;;;;;5034859;28;20595;-69
2022/03/01 00:13:20;;;;;;;9.50;7.00;;;6.60;68.80;;;;;;5017553;28;20182;-69
2022/03/01 00:15:45;;;;;;;9.90;7.20;;;6.60;68.70;;;;;;5034911;28;20449;-68
2022/03/01 00:18:11;;;;;;;10.00;7.43;;;6.60;68.80;;;;;;5034551;28;20196;-68
2022/03/01 00:20:36;;;;;;;9.80;7.27;;;6.60;69.00;;;;;;5034083;28;20190;-70
2022/03/01 00:23:02;;;;;;;7.97;7.17;;;6.50;68.80;;;;;;5034500;28;20320;-70
2022/03/01 00:25:28;;;;;;;9.67;7.07;;;6.60;69.10;;;;;;5016566;28;20579;-68
2022/03/01 00:27:54;;;;;;;9.80;7.50;;;6.60;69.10;;;;;;5034415;28;20475;-69
2022/03/01 00:30:19;;;;;;;7.20;6.50;;;6.60;68.90;;;;;;5034652;28;20262;-68
2022/03/01 00:32:45;;;;;;;12.83;7.17;;;6.60;68.80;;;;;;5034291;28;20171;-68
2022/03/01 00:35:10;;;;;;;9.07;7.70;;;6.60;68.90;;;;;;5034204;28;20244;-69
2022/03/01 00:37:36;;;;;;;8.37;7.50;;;6.60;68.90;;;;;;5033702;28;20195;-69
2022/03/01 00:40:02;;;;;;;8.30;6.77;;;6.60;69.00;;;;;;5034618;28;20182;-69
2022/03/01 00:42:28;;;;;;;8.60;6.80;;;6.60;69.20;;;;;;5034658;28;20647;-68
2022/03/01 00:44:53;;;;;;;9.40;7.30;;;6.50;69.60;;;;;;5035168;28;20449;-67
2022/03/01 00:47:19;;;;;;;9.90;6.93;;;6.50;70.10;;;;;;5034729;28;20190;-69
2022/03/01 00:49:44;;;;;;;8.60;7.77;;;6.50;70.30;;;;;;5050820;28;20197;-69
2022/03/01 00:52:10;;;;;;;8.47;6.73;;;6.40;70.30;;;;;;5036374;28;20178;-68
2022/03/01 00:54:35;;;;;;;8.47;7.23;;;6.40;70.30;;;;;;5054193;28;20586;-70
2022/03/01 00:57:01;;;;;;;7.87;7.10;;;6.30;70.50;;;;;;5054747;28;20725;-69
2022/03/01 00:59:26;;;;;;;8.13;7.03;;;6.20;71.60;;;;;;5053063;28;20218;-68
2022/03/01 01:01:52;;;;;;;9.33;7.50;;;6.10;71.80;;;;;;5054200;28;20170;-67
2022/03/01 01:04:17;;;;;;;10.43;8.00;;;6.10;71.20;;;;;;5059251;28;20201;-69
2022/03/01 01:06:43;;;;;;;11.23;7.40;;;6.10;71.10;;;;;;5048318;28;20204;-69
2022/03/01 01:09:12;;;;;;;10.00;7.53;;;6.10;71.20;;;;;;5061446;28;20186;-69
2022/03/01 01:11:38;;;;;;;9.33;7.13;;;6.10;71.70;;;;;;5021963;28;20190;-68
2022/03/01 01:14:04;;;;;;;8.00;6.77;;;6.10;71.90;;;;;;5045243;28;20409;-70
2022/03/01 01:16:29;;;;;;;10.53;7.60;;;6.10;71.30;;;;;;5044541;28;20262;-70
2022/03/01 01:18:55;;;;;;;8.33;7.33;;;6.00;71.00;;;;;;5035032;28;20207;-69
2022/03/01 01:21:21;;;;;;;9.93;7.07;;;6.00;71.30;;;;;;5028966;28;20196;-69
2022/03/01 01:23:47;;;;;;;8.43;7.00;;;6.00;71.30;;;;;;5040993;28;20209;-69
2022/03/01 01:26:13;;;;;;;8.20;6.97;;;6.10;71.20;;;;;;5065574;28;20440;-68
2022/03/01 01:28:38;;;;;;;10.67;7.50;;;6.10;71.20;;;;;;5065084;28;20205;-69
2022/03/01 01:31:04;;;;;;;8.40;7.40;;;6.10;71.20;;;;;;5064615;28;20193;-69
2022/03/01 01:33:30;;;;;;;8.50;7.00;;;6.10;71.40;;;;;;5064882;28;20178;-68
2022/03/01 01:35:55;;;;;;;10.50;6.83;;;6.00;71.30;;;;;;5046154;28;20427;-68
2022/03/01 01:38:21;;;;;;;10.57;7.30;;;6.10;71.60;;;;;;5071881;28;20185;-68
2022/03/01 01:40:46;;;;;;;9.20;7.30;;;6.10;71.20;;;;;;5043884;28;20249;-69
2022/03/01 01:43:12;;;;;;;9.63;6.77;;;6.10;71.20;;;;;;5037223;28;20175;-68
2022/03/01 01:45:38;;;;;;;9.20;6.20;;;6.00;71.50;;;;;;5017523;28;20201;-67
2022/03/01 01:48:03;;;;;;;9.23;7.30;;;6.00;71.90;;;;;;5033872;28;20198;-68
2022/03/01 01:50:31;;;;;;;8.80;7.40;;;6.00;71.90;;;;;;5034406;28;20414;-68
2022/03/01 01:52:57;;;;;;;10.67;7.57;;;5.90;71.90;;;;;;5033278;28;20183;-68
2022/03/01 01:55:25;;;;;;;8.40;6.80;;;5.90;71.60;;;;;;5034175;28;20413;-68
2022/03/01 01:57:50;;;;;;;10.13;7.37;;;5.90;71.90;;;;;;5033884;28;20202;-69
2022/03/01 02:00:16;;;;;;;9.33;7.60;;;6.00;71.80;;;;;;5034059;28;20418;-67
2022/03/01 02:02:42;;;;;;;7.70;6.93;;;6.00;71.90;;;;;;5034926;28;20204;-68
2022/03/01 02:05:09;;;;;;;9.10;7.60;;;6.10;71.90;;;;;;5033970;28;20445;-68
2022/03/01 02:07:35;;;;;;;8.27;6.83;;;6.10;71.80;;;;;;5033943;28;20444;-67
2022/03/01 02:10:01;;;;;;;9.50;7.70;;;6.10;71.80;;;;;;5033714;28;20411;-69
2022/03/01 02:12:26;;;;;;;8.30;6.90;;;6.10;71.50;;;;;;5034965;28;20410;-68
2022/03/01 02:14:52;;;;;;;8.77;7.43;;;6.10;71.40;;;;;;5036631;28;20179;-69
2022/03/01 02:17:18;;;;;;;9.73;7.50;;;6.00;71.40;;;;;;5019027;28;20914;-68
2022/03/01 02:19:48;;;;;;;8.90;6.77;;;6.00;71.60;;;;;;5036893;28;20203;-68
2022/03/01 02:22:13;;;;;;;9.10;8.13;;;5.90;72.20;;;;;;5036602;28;20440;-68
2022/03/01 02:24:39;;;;;;;9.73;6.97;;;5.90;72.50;;;;;;5037263;28;20489;-69
2022/03/01 02:27:05;;;;;;;8.33;6.80;;;5.90;72.40;;;;;;5037128;28;20171;-69
2022/03/01 02:29:32;;;;;;;9.30;7.97;;;6.00;72.50;;;;;;5035890;28;20604;-69
2022/03/01 02:32:05;;;;;;;9.10;7.00;;;6.00;72.20;;;;;;5035812;28;20421;-69
2022/03/01 02:34:30;;;;;;;9.03;6.57;;;6.00;72.40;;;;;;5037272;28;20885;-70
2022/03/01 02:36:56;;;;;;;8.10;6.80;;;5.90;72.30;;;;;;5037008;28;20420;-69
2022/03/01 02:39:22;;;;;;;7.20;6.00;;;5.80;72.70;;;;;;5019545;28;20607;-69
2022/03/01 02:41:48;;;;;;;7.93;6.90;;;5.90;73.10;;;;;;5036073;28;20413;-69
2022/03/01 02:44:14;;;;;;;9.10;7.33;;;5.90;73.30;;;;;;5035452;28;20945;-69
2022/03/01 02:46:40;;;;;;;9.00;6.97;;;5.90;73.30;;;;;;5035762;28;20253;-68
2022/03/01 02:49:07;;;;;;;8.60;7.40;;;5.90;73.80;;;;;;5035407;28;20582;-69
2022/03/01 02:51:34;;;;;;;9.90;7.47;;;5.90;73.00;;;;;;5036376;28;20409;-69
2022/03/01 02:53:59;;;;;;;9.87;7.30;;;5.90;73.40;;;;;;5017641;28;20426;-68
2022/03/01 02:56:25;;;;;;;9.00;7.23;;;5.90;73.70;;;;;;5035795;28;20405;-68
2022/03/01 02:58:51;;;;;;;8.87;6.83;;;5.80;73.80;;;;;;5017602;28;20705;-70
2022/03/01 03:01:16;;;;;;;8.23;6.70;;;5.70;74.00;;;;;;5036668;28;20265;-69
2022/03/01 03:03:42;;;;;;;9.03;6.70;;;5.80;74.10;;;;;;5036339;28;20433;-69
2022/03/01 03:06:07;;;;;;;10.23;7.67;;;5.80;74.00;;;;;;5035482;28;20163;-69
2022/03/01 03:08:33;;;;;;;12.40;7.33;;;5.90;74.00;;;;;;5035347;28;20591;-69
2022/03/01 03:10:59;;;;;;;8.83;7.43;;;5.90;74.20;;;;;;5034762;28;20543;-69
2022/03/01 03:13:26;;;;;;;11.13;7.53;;;5.90;74.40;;;;;;5035338;28;20679;-69
2022/03/01 03:15:52;;;;;;;7.77;7.00;;;5.90;74.40;;;;;;5035224;28;20410;-69
2022/03/01 03:18:17;;;;;;;9.90;7.80;;;5.90;74.30;;;;;;5035474;28;20925;-69
2022/03/01 03:20:43;;;;;;;9.77;8.30;;;5.90;74.40;;;;;;5034497;28;20495;-69
2022/03/01 03:23:10;;;;;;;8.27;6.77;;;5.90;74.50;;;;;;5033900;28;20209;-69
2022/03/01 03:25:36;;;;;;;9.50;7.43;;;5.90;74.20;;;;;;5035242;28;20507;-69
2022/03/01 03:28:01;;;;;;;8.60;7.70;;;5.90;74.50;;;;;;5034786;28;20434;-69
2022/03/01 03:30:27;;;;;;;9.30;7.27;;;5.80;74.60;;;;;;5035039;28;20409;-69
2022/03/01 03:32:53;;;;;;;9.90;7.27;;;5.80;74.70;;;;;;5034612;28;20171;-69
2022/03/01 03:35:18;;;;;;;9.70;7.23;;;5.80;75.00;;;;;;5017107;28;20171;-69
2022/03/01 03:37:44;;;;;;;8.00;7.10;;;5.60;75.10;;;;;;5034738;28;20550;-69
2022/03/01 03:40:10;;;;;;;9.67;6.93;;;5.50;75.60;;;;;;5035058;28;20236;-69
2022/03/01 03:42:36;;;;;;;10.20;7.30;;;5.50;75.80;;;;;;5016434;28;20190;-69
2022/03/01 03:45:03;;;;;;;9.70;7.50;;;5.40;76.20;;;;;;5034889;28;20445;-69
2022/03/01 03:47:29;;;;;;;9.47;7.10;;;5.30;76.40;;;;;;5035080;28;20737;-69
2022/03/01 03:49:54;;;;;;;9.33;6.70;;;5.20;76.90;;;;;;5016691;28;20429;-69
2022/03/01 03:52:21;;;;;;;10.40;6.80;;;5.20;77.10;;;;;;5033899;28;20200;-67
2022/03/01 03:54:46;;;;;;;11.03;7.43;;;5.10;77.60;;;;;;5034737;28;20643;-67
2022/03/01 03:57:12;;;;;;;8.40;7.30;;;5.10;78.00;;;;;;5034709;28;20436;-68
2022/03/01 03:59:38;;;;;;;7.33;6.57;;;5.10;78.00;;;;;;5042350;22;20233;-69
2022/03/01 04:02:06;;;;;;;10.70;7.93;;;5.10;78.40;;;;;;5049557;28;20221;-69
2022/03/01 04:04:31;;;;;;;9.77;7.37;;;5.10;78.80;;;;;;5052170;28;20459;-69
2022/03/01 04:06:57;;;;;;;9.77;7.33;;;5.10;78.90;;;;;;5053523;28;20511;-69
2022/03/01 04:09:23;;;;;;;13.97;8.23;;;5.10;79.40;;;;;;5053129;28;20685;-69
2022/03/01 04:11:48;;;;;;;8.83;7.50;;;5.10;79.30;;;;;;5052683;28;20179;-69
2022/03/01 04:14:14;;;;;;;10.33;8.10;;;5.10;79.70;;;;;;5034525;28;20178;-69
2022/03/01 04:16:42;;;;;;;10.37;7.80;;;5.20;79.60;;;;;;5053002;28;20192;-69
2022/03/01 04:19:08;;;;;;;10.17;7.30;;;5.20;78.90;;;;;;5053386;28;20193;-69
2022/03/01 04:21:34;;;;;;;10.63;8.03;;;5.20;78.50;;;;;;5052664;28;20425;-69
2022/03/01 04:23:59;;;;;;;10.33;8.00;;;5.20;78.40;;;;;;5052425;28;20542;-69
2022/03/01 04:26:25;;;;;;;9.43;7.10;;;5.20;78.90;;;;;;5052298;28;20171;-69
2022/03/01 04:28:50;;;;;;;10.23;7.50;;;5.20;79.00;;;;;;5052947;28;20216;-70
2022/03/01 04:31:16;;;;;;;9.30;7.47;;;5.20;78.70;;;;;;5052756;28;20729;-71
2022/03/01 04:33:41;;;;;;;13.00;7.70;;;5.20;78.80;;;;;;5052543;28;20182;-68
2022/03/01 04:36:08;;;;;;;11.93;7.37;;;5.10;79.10;;;;;;5051769;28;20240;-69
2022/03/01 04:38:35;;;;;;;10.70;7.30;;;5.10;79.90;;;;;;5052580;28;20184;-69
2022/03/01 04:41:00;;;;;;;9.80;7.77;;;5.10;80.40;;;;;;5052256;28;20432;-68
2022/03/01 04:43:26;;;;;;;10.97;8.37;;;5.00;80.60;;;;;;5052366;28;20919;-69
2022/03/01 04:45:52;;;;;;;13.20;8.70;;;5.00;80.60;;;;;;5052481;28;20525;-68
2022/03/01 04:48:18;;;;;;;9.53;7.80;;;5.00;80.50;;;;;;5052048;28;20169;-69
2022/03/01 04:50:43;;;;;;;8.97;7.90;;;5.10;80.10;;;;;;5052594;28;20536;-69
2022/03/01 04:53:10;;;;;;;14.53;8.80;;;5.10;80.40;;;;;;5052496;28;20436;-69
2022/03/01 04:55:37;;;;;;;9.90;8.40;;;5.10;81.00;;;;;;5034537;28;20169;-69
2022/03/01 04:58:03;;;;;;;11.47;8.27;;;5.00;80.90;;;;;;5052438;28;20429;-69
2022/03/01 05:00:28;;;;;;;11.80;8.23;;;5.00;81.00;;;;;;5051258;28;20463;-70
2022/03/01 05:02:54;;;;;;;9.70;7.40;;;5.00;80.40;;;;;;5051488;28;20499;-69
2022/03/01 05:05:19;;;;;;;11.33;8.07;;;5.00;80.70;;;;;;5051640;28;20212;-70
2022/03/01 05:07:47;;;;;;;10.60;8.17;;;5.10;80.60;;;;;;5051152;28;20170;-70
2022/03/01 05:10:17;;;;;;;13.70;9.00;;;5.00;80.50;;;;;;5051245;28;20554;-69
2022/03/01 05:12:44;;;;;;;12.10;7.90;;;5.10;80.60;;;;;;5051109;28;20412;-69
2022/03/01 05:15:10;;;;;;;10.50;7.93;;;5.00;81.00;;;;;;5050969;28;20436;-69
2022/03/01 05:17:36;;;;;;;11.53;8.73;;;5.00;81.00;;;;;;5050705;28;20427;-69
2022/03/01 05:20:02;;;;;;;14.80;8.90;;;5.00;81.00;;;;;;5051220;28;20440;-69
2022/03/01 05:22:28;;;;;;;10.30;7.30;;;5.10;81.30;;;;;;5050492;28;20404;-69
2022/03/01 05:24:53;;;;;;;9.57;7.97;;;5.10;81.20;;;;;;5050829;28;20457;-69
2022/03/01 05:27:19;;;;;;;11.43;8.97;;;5.10;81.00;;;;;;5050994;28;20256;-69
2022/03/01 05:29:44;;;;;;;12.80;9.27;;;5.10;81.50;;;;;;5050480;28;20198;-69
2022/03/01 05:32:11;;;;;;;10.17;7.27;;;5.00;81.70;;;;;;5050482;28;20646;-69
2022/03/01 05:34:36;;;;;;;14.23;9.07;;;5.00;81.50;;;;;;5050545;28;20173;-70
2022/03/01 05:37:02;;;;;;;10.80;8.10;;;4.90;81.50;;;;;;5051131;28;20425;-69
2022/03/01 05:39:28;;;;;;;11.67;8.70;;;4.90;81.90;;;;;;5032378;28;20212;-69
2022/03/01 05:41:53;;;;;;;13.83;8.90;;;4.80;82.10;;;;;;5050437;28;20184;-69
2022/03/01 05:44:20;;;;;;;12.77;9.63;;;4.80;82.20;;;;;;5050294;28;20198;-69
2022/03/01 05:46:45;;;;;;;11.50;7.77;;;4.70;82.00;;;;;;5051253;28;20166;-69
2022/03/01 05:49:11;;;;;;;9.90;8.90;;;4.70;82.50;;;;;;5053896;28;20767;-69
2022/03/01 05:51:36;;;;;;;11.27;8.00;;;4.70;82.30;;;;;;5053960;28;20575;-69
2022/03/01 05:54:02;;;;;;;11.30;8.70;;;4.60;82.50;;;;;;5054088;28;20178;-68
2022/03/01 05:56:28;;;;;;;10.83;8.30;;;4.60;82.90;;;;;;5054305;28;20543;-68
2022/03/01 05:58:53;;;;;;;10.30;8.30;;;4.60;83.30;;;;;;5054001;28;20542;-69
2022/03/01 06:01:19;;;;;;;11.30;8.53;;;4.60;82.50;;;;;;5017951;28;1048428;-69
2022/03/01 06:03:44;;;;;;;9.23;7.50;;;4.60;82.50;;;;;;5055082;28;20180;-69
2022/03/01 06:06:10;;;;;;;11.50;8.70;;;4.60;82.10;;;;;;5055490;28;20577;-69
2022/03/01 06:08:35;;;;;;;14.17;8.90;;;4.60;82.90;;;;;;5055151;28;20180;-69
2022/03/01 06:11:01;;;;;;;14.73;8.87;;;4.60;82.70;;;;;;5054868;28;20205;-69
2022/03/01 06:13:26;;;;;;;12.60;8.20;;;4.70;82.20;;;;;;5054502;28;20228;-68
2022/03/01 06:15:52;;;;;;;12.10;8.23;;;4.70;82.20;;;;;;5055121;28;20185;-69
2022/03/01 06:18:17;;;;;;;12.70;8.90;;;4.80;82.60;;;;;;5055086;28;20181;-69
2022/03/01 06:20:44;;;;;;;11.67;9.17;;;4.90;82.80;;;;;;5054909;28;20559;-68
2022/03/01 06:23:10;;;;;;;13.20;9.77;;;4.90;82.10;;;;;;5054394;28;20209;-70
2022/03/01 06:25:36;;;;;;;11.93;8.53;;;4.80;81.90;;;;;;5050931;28;21039;-68
2022/03/01 06:28:02;;;;;;;11.37;7.90;;;4.80;81.50;;;;;;5051271;28;20463;-69
2022/03/01 06:30:28;;;;;;;10.47;7.80;;;4.80;81.60;;;;;;5053713;28;20460;-69
2022/03/01 06:32:53;;;;;;;11.43;8.73;;;4.80;81.30;;;;;;5052335;28;20603;-68
2022/03/01 06:35:19;;;;;;;10.60;7.83;;;4.80;80.60;;;;;;5053610;28;20205;-70
2022/03/01 06:37:44;;;;;;;12.80;9.03;;;4.80;80.00;;;;;;5052856;28;20221;-69
2022/03/01 06:40:12;;;;;;;11.37;8.77;;;4.90;80.50;;;;;;5053522;28;20322;-68
2022/03/01 06:42:38;;;;;;;11.30;8.77;;;4.90;80.70;;;;;;5052348;28;20225;-70
2022/03/01 06:45:06;;;;;;;12.60;8.40;;;4.80;80.20;;;;;;5053288;28;20468;-70
2022/03/01 06:47:32;;;;;;;13.10;9.60;;;4.70;80.60;;;;;;5053984;28;20192;-68
2022/03/01 06:49:57;;;;;;;13.17;9.57;;;4.80;81.10;;;;;;5052487;28;20513;-68
2022/03/01 06:52:23;;;;;;;12.80;10.20;;;4.80;80.50;;;;;;5052322;28;20188;-69
2022/03/01 06:54:48;;;;;;;12.57;9.50;;;4.80;80.40;;;;;;5052247;28;20173;-69
2022/03/01 06:57:14;;;;;;;11.90;9.90;;;4.90;80.70;;;;;;5051888;28;20204;-68
2022/03/01 06:59:39;;;;;;;13.30;8.60;;;5.00;80.30;;;;;;5050185;28;20312;-69
2022/03/01 07:02:05;;;;;;;11.93;9.10;;;5.10;80.00;;;;;;5051592;28;20163;-69
2022/03/01 07:04:30;;;;;;;14.17;9.23;;;5.30;79.50;;;;;;5052378;28;20284;-68
2022/03/01 07:06:56;;;;;;;14.00;9.50;;;5.30;78.90;;;;;;5053671;28;20221;-68
2022/03/01 07:09:22;;;;;;;16.67;9.13;;;5.30;78.80;;;;;;5053372;28;20179;-70
2022/03/01 07:11:48;;;;;;;12.10;8.17;;;5.20;79.10;;;;;;5053407;28;20177;-68
2022/03/01 07:14:13;;;;;;;13.47;9.30;;;5.10;79.00;;;;;;5053715;28;20906;-69
2022/03/01 07:16:39;;;;;;;13.93;8.87;;;5.00;78.80;;;;;;5053516;28;20178;-69
2022/03/01 07:19:04;;;;;;;14.97;8.87;;;4.90;79.40;;;;;;5053638;28;20177;-67
2022/03/01 07:21:30;;;;;;;12.70;8.33;;;5.00;79.30;;;;;;5053343;28;20719;-69
2022/03/01 07:23:55;;;;;;;13.33;8.13;;;5.00;78.70;;;;;;5053455;28;20197;-69
2022/03/01 07:26:21;;;;;;;13.07;8.93;;;5.00;78.90;;;;;;5053213;28;20174;-68
2022/03/01 07:28:46;;;;;;;20.00;8.80;;;5.20;78.50;;;;;;5053763;28;20593;-70
2022/03/01 07:31:12;;;;;;;16.23;8.80;;;5.20;78.30;;;;;;5053215;28;20209;-68
2022/03/01 07:33:39;;;;;;;11.87;9.00;;;5.30;77.90;;;;;;5053409;28;20564;-69
2022/03/01 07:36:05;;;;;;;13.97;10.00;;;5.40;78.20;;;;;;5053679;28;20176;-69
2022/03/01 07:38:30;;;;;;;15.03;10.60;;;5.40;78.00;;;;;;5053314;28;20412;-69
2022/03/01 07:40:56;;;;;;;17.50;9.37;;;5.30;77.30;;;;;;5053048;28;20261;-69
2022/03/01 07:43:21;;;;;;;13.17;10.70;;;5.30;77.50;;;;;;5052777;28;20707;-68
2022/03/01 07:45:47;;;;;;;14.23;8.50;;;5.30;77.70;;;;;;5052981;28;20660;-70
2022/03/01 07:48:12;;;;;;;14.03;9.77;;;5.40;77.70;;;;;;5052792;28;20178;-69
2022/03/01 07:50:38;;;;;;;12.30;8.80;;;5.50;76.60;;;;;;5053163;28;20182;-69
2022/03/01 07:53:04;;;;;;;13.27;8.87;;;5.50;76.80;;;;;;5052439;28;20523;-69
2022/03/01 07:55:30;;;;;;;10.10;8.83;;;5.60;76.40;;;;;;5052877;28;20166;-68
2022/03/01 07:57:55;;;;;;;11.67;8.60;;;5.60;76.50;;;;;;5053099;28;20419;-69
2022/03/01 08:00:24;;;;;;;13.90;9.13;;;5.70;76.20;;;;;;5052243;28;20296;-69
2022/03/01 08:02:52;;;;;;;13.17;8.93;;;5.80;75.00;;;;;;5052660;28;20183;-69
2022/03/01 08:05:17;;;;;;;12.00;8.73;;;5.80;75.10;;;;;;5052439;28;20460;-69
2022/03/01 08:07:43;;;;;;;11.77;8.30;;;6.00;74.60;;;;;;5052629;28;20528;-69
2022/03/01 08:10:09;;;;;;;11.60;8.30;;;6.10;74.30;;;;;;5033900;28;20193;-68
2022/03/01 08:12:34;;;;;;;12.50;8.80;;;6.20;74.10;;;;;;5052339;28;20679;-68
2022/03/01 08:15:00;;;;;;;11.40;7.50;;;6.30;74.00;;;;;;5052513;28;20206;-69
2022/03/01 08:17:25;;;;;;;14.30;8.87;;;6.40;73.50;;;;;;5052599;28;20174;-69
2022/03/01 08:19:51;;;;;;;13.47;9.47;;;6.50;73.00;;;;;;5034108;28;20201;-69
2022/03/01 08:22:16;;;;;;;18.80;9.97;;;6.60;71.80;;;;;;5052010;28;20241;-69
2022/03/01 08:24:42;;;;;;;9.47;7.50;;;6.60;71.40;;;;;;5052373;28;20234;-69
2022/03/01 08:27:08;;;;;;;12.10;8.33;;;6.70;71.30;;;;;;5052419;28;20639;-69
2022/03/01 08:29:34;;;;;;;10.90;7.80;;;6.80;71.00;;;;;;5052301;28;20239;-69
2022/03/01 08:32:00;;;;;;;12.20;8.23;;;6.90;70.00;;;;;;5051721;28;20202;-69
2022/03/01 08:34:25;;;;;;;11.97;7.60;;;7.00;68.90;;;;;;5051914;28;20771;-69
2022/03/01 08:36:52;;;;;;;10.50;8.07;;;7.00;68.70;;;;;;5052231;28;20396;-68
2022/03/01 08:39:17;;;;;;;15.67;8.87;;;7.00;68.00;;;;;;5051161;28;20190;-68
2022/03/01 08:41:43;;;;;;;9.67;7.67;;;7.00;67.50;;;;;;5051797;28;20414;-69
2022/03/01 08:44:08;;;;;;;12.43;8.20;;;7.10;67.70;;;;;;5051988;28;20288;-69
2022/03/01 08:46:35;;;;;;;9.47;8.00;;;7.10;67.40;;;;;;5051718;28;20297;-69
2022/03/01 08:49:00;;;;;;;9.17;7.50;;;7.10;66.50;;;;;;5051496;28;20644;-69
2022/03/01 08:51:26;;;;;;;15.03;9.13;;;7.10;66.40;;;;;;5051734;28;20518;-68
2022/03/01 08:53:53;;;;;;;12.03;8.60;;;7.20;66.30;;;;;;5051503;28;20171;-68
2022/03/01 08:56:20;;;;;;;11.50;7.60;;;7.20;65.30;;;;;;5051809;28;20712;-69
2022/03/01 08:58:46;;;;;;;11.00;7.80;;;7.30;65.40;;;;;;5051766;28;20425;-69
2022/03/01 09:01:12;;;;;;;13.30;8.40;;;7.30;64.70;;;;;;5031331;28;20453;-69
2022/03/01 09:03:38;;;;;;;7.93;6.70;;;7.40;64.70;;;;;;5031444;28;20420;-68
2022/03/01 09:06:05;;;;;;;10.10;7.67;;;7.50;64.40;;;;;;5031545;28;20247;-68
2022/03/01 09:08:37;;;;;;;11.60;8.10;;;7.50;63.80;;;;;;5031583;28;20416;-68
2022/03/01 09:11:03;;;;;;;12.00;8.13;;;7.60;63.40;;;;;;5046613;28;20866;-68
2022/03/01 09:13:29;;;;;;;10.47;8.10;;;7.50;63.40;;;;;;5051025;28;20493;-67
2022/03/01 09:15:55;;;;;;;9.87;7.97;;;7.60;63.10;;;;;;5051704;28;20195;-67
2022/03/01 09:18:21;;;;;;;12.63;7.40;;;7.70;62.50;;;;;;5033769;28;20928;-69
2022/03/01 09:20:47;;;;;;;12.03;7.43;;;7.70;62.50;;;;;;5051028;28;20198;-68
2022/03/01 09:23:13;;;;;;;15.50;8.70;;;7.80;62.20;;;;;;5050813;28;20872;-68
2022/03/01 09:25:39;;;;;;;11.17;7.63;;;7.80;62.20;;;;;;5051552;28;20516;-68
2022/03/01 09:28:04;;;;;;;12.93;8.40;;;8.00;62.10;;;;;;5051198;28;20408;-69
2022/03/01 09:30:30;;;;;;;11.00;7.80;;;8.20;61.70;;;;;;5051429;28;20228;-68
2022/03/01 09:32:55;;;;;;;12.83;8.00;;;8.30;61.40;;;;;;5050850;28;20175;-68
2022/03/01 09:35:21;;;;;;;10.00;7.57;;;8.30;61.30;;;;;;5051436;28;20702;-67
2022/03/01 09:37:47;;;;;;;11.20;8.67;;;8.30;60.80;;;;;;5051117;28;20274;-69
2022/03/01 09:40:14;;;;;;;14.30;8.73;;;8.40;60.90;;;;;;5051143;28;20322;-69
2022/03/01 09:42:40;;;;;;;11.70;8.67;;;8.40;60.90;;;;;;5050939;28;20182;-68
2022/03/01 09:45:07;;;;;;;9.03;7.57;;;8.60;61.00;;;;;;5051647;28;20471;-69
2022/03/01 09:47:32;;;;;;;8.53;7.37;;;8.60;60.20;;;;;;5051175;28;20404;-68
2022/03/01 09:49:58;;;;;;;12.30;8.00;;;8.60;59.90;;;;;;5051180;28;20425;-68
2022/03/01 09:52:23;;;;;;;11.93;8.80;;;8.60;59.90;;;;;;5050590;28;20200;-67
2022/03/01 09:54:52;;;;;;;13.20;8.70;;;8.60;60.60;;;;;;5051006;28;20228;-71
2022/03/01 09:57:19;;;;;;;11.43;7.93;;;8.60;60.50;;;;;;5051275;28;20188;-68
2022/03/01 09:59:45;;;;;;;14.50;9.27;;;8.60;60.60;;;;;;5050938;28;20531;-68
2022/03/01 10:02:12;;;;;;;12.13;8.70;;;8.60;60.90;;;;;;5084503;22;20491;-71
2022/03/01 10:04:57;;;;;;;10.67;8.40;;;8.50;60.50;;;;;;5072018;28;20463;-68
2022/03/01 10:07:28;;;;;;;10.43;7.83;;;8.40;60.00;;;;;;5073613;28;20418;-69
2022/03/01 10:09:55;;;;;;;11.83;8.43;;;8.40;60.50;;;;;;5073755;28;20419;-68
2022/03/01 10:12:31;;;;;;;9.80;7.77;;;8.60;60.90;;;;;;5072871;28;20541;-67
2022/03/01 10:14:59;;;;;;;11.53;8.50;;;8.70;60.40;;;;;;5044174;28;20911;-68
2022/03/01 10:17:42;;;;;;;11.33;8.53;;;8.70;60.10;;;;;;5042521;28;20500;-67
2022/03/01 10:20:10;;;;;;;11.00;9.00;;;8.90;60.40;;;;;;5053693;28;20393;-69
2022/03/01 10:22:53;;;;;;;10.47;8.00;;;9.10;60.50;;;;;;5052949;28;20479;-69
2022/03/01 10:25:23;;;;;;;11.53;8.40;;;9.30;59.50;;;;;;5052226;28;20447;-69
2022/03/01 10:27:51;;;;;;;10.03;7.97;;;9.30;59.30;;;;;;5053585;28;20408;-68
2022/03/01 10:30:32;;;;;;;11.50;8.30;;;9.40;59.50;;;;;;5053225;28;20901;-69
2022/03/01 10:33:10;;;;;;;10.50;8.60;;;9.40;58.90;;;;;;5055174;28;20485;-69
2022/03/01 10:35:37;;;;;;;12.40;7.10;;;9.40;58.20;;;;;;5051406;28;20768;-68
2022/03/01 10:38:04;;;;;;;11.43;7.83;;;9.40;58.50;;;;;;5043616;28;20452;-69
2022/03/01 10:40:31;;;;;;;11.50;7.57;;;9.40;58.30;;;;;;5038603;28;20848;-70
2022/03/01 10:43:24;;;;;;;10.90;7.30;;;9.40;58.20;;;;;;5038524;28;20478;-68
2022/03/01 10:45:53;;;;;;;13.07;8.60;;;9.40;58.50;;;;;;5036660;28;20476;-68
2022/03/01 10:48:32;;;;;;;9.33;7.70;;;9.30;58.00;;;;;;5041064;28;20435;-69
2022/03/01 10:51:02;;;;;;;10.17;7.63;;;9.30;58.40;;;;;;5057026;28;20794;-69
2022/03/01 10:53:42;;;;;;;10.87;7.87;;;9.40;58.60;;;;;;5039457;28;20503;-68
2022/03/01 10:56:11;;;;;;;11.47;7.93;;;9.50;58.50;;;;;;5057539;28;20419;-67
2022/03/01 10:58:38;;;;;;;12.60;8.27;;;9.50;58.30;;;;;;5055703;28;20423;-68
2022/03/01 11:01:07;;;;;;;9.00;7.13;;;9.60;58.10;;;;;;5038169;28;20523;-69
2022/03/01 11:03:33;;;;;;;9.60;7.67;;;9.60;58.00;;;;;;5038629;28;20420;-67
2022/03/01 11:06:00;;;;;;;10.07;7.87;;;9.70;57.90;;;;;;5056608;28;20444;-68
2022/03/01 11:08:32;;;;;;;11.63;8.73;;;9.60;57.90;;;;;;5057774;28;20401;-68
2022/03/01 11:11:00;;;;;;;11.10;7.97;;;9.70;58.10;;;;;;5041940;28;20441;-68
2022/03/01 11:13:26;;;;;;;10.83;8.10;;;9.80;57.90;;;;;;5020604;28;20406;-69
2022/03/01 11:16:10;;;;;;;14.27;9.03;;;9.90;57.60;;;;;;5038423;28;20457;-69
2022/03/01 11:18:52;;;;;;;10.07;8.07;;;10.10;57.00;;;;;;5038522;28;20418;-69
2022/03/01 11:21:19;;;;;;;9.63;7.70;;;10.10;56.30;;;;;;5050607;28;20445;-69
2022/03/01 11:23:45;;;;;;;10.97;8.50;;;9.90;57.50;;;;;;5057063;28;20408;-68
2022/03/01 11:26:13;;;;;;;9.93;7.87;;;10.00;56.80;;;;;;5058053;28;20496;-68
2022/03/01 11:28:40;;;;;;;10.90;7.63;;;10.10;56.90;;;;;;5040406;28;20412;-69
2022/03/01 11:31:28;;;;;;;11.23;8.47;;;10.20;57.00;;;;;;5056746;28;20444;-69
2022/03/01 11:33:59;;;;;;;9.83;7.67;;;10.20;56.90;;;;;;5064375;28;20872;-69
2022/03/01 11:36:28;;;;;;;9.67;7.70;;;10.30;56.60;;;;;;5048617;28;20413;-69
2022/03/01 11:38:53;;;;;;;9.30;7.50;;;10.30;56.00;;;;;;5067514;28;20912;-70
2022/03/01 11:41:22;;;;;;;11.60;8.17;;;10.30;55.90;;;;;;5063737;28;20445;-68
2022/03/01 11:43:57;;;;;;;10.70;7.73;;;10.30;56.30;;;;;;5063686;28;20182;-68
2022/03/01 11:46:23;;;;;;;11.70;8.23;;;10.30;56.50;;;;;;5057709;28;20416;-69
2022/03/01 11:48:57;;;;;;;11.37;7.97;;;10.20;56.20;;;;;;5057647;28;20408;-69
2022/03/01 11:51:40;;;;;;;10.53;8.23;;;10.20;56.40;;;;;;5059382;28;20485;-68
2022/03/01 11:54:20;;;;;;;10.87;7.80;;;10.30;56.00;;;;;;5049760;28;20471;-70
2022/03/01 11:56:48;;;;;;;9.37;8.30;;;10.20;56.00;;;;;;5049918;28;20402;-70
2022/03/01 11:59:14;;;;;;;10.90;8.47;;;10.20;56.40;;;;;;5052314;28;20464;-69
2022/03/01 12:01:40;;;;;;;9.37;7.67;;;10.20;56.60;;;;;;5034986;28;20460;-68
2022/03/01 12:04:08;;;;;;;11.80;8.57;;;10.20;56.50;;;;;;5069287;28;20284;-70
2022/03/01 12:06:36;;;;;;;10.67;7.77;;;10.20;56.30;;;;;;5073172;28;20409;-69
2022/03/01 12:09:05;;;;;;;12.87;8.60;;;10.20;56.30;;;;;;5070500;28;20413;-69
2022/03/01 12:11:32;;;;;;;8.87;7.63;;;10.30;56.20;;;;;;5055705;28;20435;-68
2022/03/01 12:14:05;;;;;;;10.13;8.07;;;10.50;56.30;;;;;;5054484;28;20413;-68
2022/03/01 12:16:32;;;;;;;12.30;8.63;;;10.60;55.90;;;;;;5056127;28;20447;-68
2022/03/01 12:19:14;;;;;;;9.17;7.70;;;10.70;56.10;;;;;;5056235;28;20433;-69
2022/03/01 12:21:47;;;;;;;10.87;8.50;;;10.80;55.60;;;;;;5055671;28;20520;-70
2022/03/01 12:24:13;;;;;;;10.97;7.90;;;10.80;55.80;;;;;;5055240;28;21020;-68
2022/03/01 12:26:45;;;;;;;13.40;7.87;;;10.90;55.60;;;;;;5057377;28;20405;-69
2022/03/01 12:29:11;;;;;;;12.57;9.40;;;11.00;55.50;;;;;;5042492;28;20543;-69
2022/03/01 12:31:37;;;;;;;10.13;8.37;;;11.00;55.60;;;;;;5018011;28;20894;-67
2022/03/01 12:34:07;;;;;;;9.97;8.47;;;11.20;55.10;;;;;;5035805;28;21238;-70
2022/03/01 12:36:34;;;;;;;11.30;8.30;;;11.20;54.90;;;;;;5036395;28;20167;-68
2022/03/01 12:39:12;;;;;;;11.67;8.70;;;11.20;54.90;;;;;;5037071;28;20433;-69
2022/03/01 12:41:42;;;;;;;10.93;8.20;;;11.20;55.00;;;;;;5036024;28;20762;-68
2022/03/01 12:44:10;;;;;;;10.93;8.43;;;11.30;54.80;;;;;;5036570;28;20491;-68
2022/03/01 12:46:36;;;;;;;10.17;7.83;;;11.20;54.50;;;;;;5035675;28;20414;-69
2022/03/01 12:49:05;;;;;;;8.83;7.90;;;11.20;54.60;;;;;;5035453;28;20413;-69